Ypsilanti, MI

10:07 AM EST on February 24, 2017 (GMT -0500)
| | Change Station
Active Advisory: Special Statement

Elev -9999 ft 0.00 °N, 0.00 °E | Updated

Fog
Fog
°F
Feels Like °F
N
Wind Variable Wind from North
Gusts mph

Today
High -- | Low -- °F
--% Chance of Precip.
Yesterday
High -- | Low -- °F
Precip. -- in
Pressure 29.64 in
Visibility 0.2 miles
Clouds
Dew Point Not available.
Humidity Not available.
Rainfall --
Snow Depth Not available.
7:17 AM 6:18 PM
Waning Crescent, 5% visible
METAR KYIP 241453Z 10003KT 1/4SM R05R/2400V3000FT FG VV003 08/07 A2963 RMK AO2 SFC VIS 1/2 SLP035 T00780072 56002
Pressure 29.64 in
Visibility 0.2 miles
Clouds
Dew Point Not available.
Humidity Not available.
Rainfall --
Snow Depth Not available.
7:17 AM 6:18 PM
Waning Crescent, 5% visible
METAR KYIP 241453Z 10003KT 1/4SM R05R/2400V3000FT FG VV003 08/07 A2963 RMK AO2 SFC VIS 1/2 SLP035 T00780072 56002

Get Your Daily Forecast Email!

Thanks for signing up!

Be on the lookout for a verification email in your inbox.

You'll start receiving the daily forecast at 8 AM.

×

10-Day Weather Forecast

Almanac

Astronomy

Feb. 24, 2017 Rise Set
Actual Time
Civil Twilight
Nautical Twilight
Astronomical Twilight
Moon
Length of Visible Light
Length of Day
Tomorrow will be .
, % of the Moon is Illuminated

Today's Extremes

State Highs State Lows

Community

WunderPhotos

Upload Photos

1,962,540 photos uploaded!

WunderBlog® & News

Nearby

Air Quality

  Air Quality AQ Index Pollutant
Not available.

Snow Depth

Station Depth Elevation

Earthquake Activity

City Distance Mag. Time & Date
Minimum magnitude displayed is 2.5.

Coastal Water Temperatures

Place Temperature

Stations

Nearby Weather Stations

Station Location Temp. Windchill Dew Point Humidity Wind Precip. Elev Updated Type
                   

Watches & Warnings

Special Statement
Issued: 8:27 AM EST Feb. 24, 2017 – National Weather Service

... Areas of dense fog this morning...

Areas of dense fog have developed this morning... reducing
visibility to a quarter of a mile or less in spots. Motorists
should be prepared for reduced visibilities and allow for extra
time to reach their destination. Low beam headlights should be
turned on. Fog will be slow to dissipate this morning.



Sf

827 am EST Fri Feb 24 2017

... Areas of dense fog this morning...

Areas of dense fog have developed this morning... reducing
visibility to a quarter of a mile or less in spots. Motorists
should be prepared for reduced visibilities and allow for extra
time to reach their destination. Low beam headlights should be
turned on. Fog will be slow to dissipate this morning.



Sf